sensor_id;sensor_type;location;lat;lon;timestamp;P1;durP1;ratioP1;P2;durP2;ratioP2
76795;SDS011;65745;50.278;18.192;2023-02-15T00:02:00;67.70;;;38.20;;
76795;SDS011;65745;50.278;18.192;2023-02-15T00:04:32;70.00;;;38.10;;
76795;SDS011;65745;50.278;18.192;2023-02-15T00:07:18;63.50;;;34.20;;
76795;SDS011;65745;50.278;18.192;2023-02-15T00:09:50;65.50;;;36.40;;
76795;SDS011;65745;50.278;18.192;2023-02-15T00:12:22;60.50;;;34.00;;
76795;SDS011;65745;50.278;18.192;2023-02-15T00:14:55;69.30;;;38.90;;
76795;SDS011;65745;50.278;18.192;2023-02-15T00:17:28;73.40;;;40.20;;
76795;SDS011;65745;50.278;18.192;2023-02-15T00:20:01;72.70;;;40.00;;
76795;SDS011;65745;50.278;18.192;2023-02-15T00:22:33;82.10;;;45.70;;
76795;SDS011;65745;50.278;18.192;2023-02-15T00:25:07;84.50;;;47.00;;
76795;SDS011;65745;50.278;18.192;2023-02-15T00:27:39;73.90;;;44.50;;
76795;SDS011;65745;50.278;18.192;2023-02-15T00:30:12;73.10;;;41.90;;
76795;SDS011;65745;50.278;18.192;2023-02-15T00:32:46;73.00;;;39.00;;
76795;SDS011;65745;50.278;18.192;2023-02-15T00:35:19;74.10;;;42.00;;
76795;SDS011;65745;50.278;18.192;2023-02-15T00:37:52;75.40;;;41.10;;
76795;SDS011;65745;50.278;18.192;2023-02-15T00:40:24;72.30;;;37.00;;
76795;SDS011;65745;50.278;18.192;2023-02-15T00:42:57;67.20;;;35.40;;
76795;SDS011;65745;50.278;18.192;2023-02-15T00:45:30;74.20;;;38.90;;
76795;SDS011;65745;50.278;18.192;2023-02-15T00:48:02;69.50;;;37.60;;
76795;SDS011;65745;50.278;18.192;2023-02-15T00:50:35;68.20;;;38.90;;
76795;SDS011;65745;50.278;18.192;2023-02-15T00:53:07;67.60;;;37.80;;
76795;SDS011;65745;50.278;18.192;2023-02-15T00:55:40;67.50;;;38.80;;
76795;SDS011;65745;50.278;18.192;2023-02-15T00:58:12;60.60;;;33.90;;
76795;SDS011;65745;50.278;18.192;2023-02-15T01:00:45;58.50;;;29.90;;
76795;SDS011;65745;50.278;18.192;2023-02-15T01:03:19;58.80;;;31.90;;
76795;SDS011;65745;50.278;18.192;2023-02-15T01:05:52;56.60;;;29.90;;
76795;SDS011;65745;50.278;18.192;2023-02-15T01:08:24;55.60;;;29.60;;
76795;SDS011;65745;50.278;18.192;2023-02-15T01:10:57;58.10;;;30.20;;
76795;SDS011;65745;50.278;18.192;2023-02-15T01:13:35;49.50;;;29.90;;
76795;SDS011;65745;50.278;18.192;2023-02-15T01:16:08;49.90;;;29.10;;
76795;SDS011;65745;50.278;18.192;2023-02-15T01:18:40;58.30;;;31.80;;
76795;SDS011;65745;50.278;18.192;2023-02-15T01:21:13;59.70;;;31.50;;
76795;SDS011;65745;50.278;18.192;2023-02-15T01:23:49;54.40;;;31.40;;
76795;SDS011;65745;50.278;18.192;2023-02-15T01:26:21;55.90;;;31.20;;
76795;SDS011;65745;50.278;18.192;2023-02-15T01:28:53;58.20;;;28.90;;
76795;SDS011;65745;50.278;18.192;2023-02-15T01:31:26;58.70;;;28.70;;
76795;SDS011;65745;50.278;18.192;2023-02-15T01:33:59;54.10;;;27.90;;
76795;SDS011;65745;50.278;18.192;2023-02-15T01:36:32;53.60;;;28.60;;
76795;SDS011;65745;50.278;18.192;2023-02-15T01:39:05;55.70;;;31.80;;
76795;SDS011;65745;50.278;18.192;2023-02-15T01:41:39;60.90;;;32.90;;
76795;SDS011;65745;50.278;18.192;2023-02-15T01:47:22;55.00;;;32.50;;
76795;SDS011;65745;50.278;18.192;2023-02-15T01:50:02;56.40;;;32.50;;
76795;SDS011;65745;50.278;18.192;2023-02-15T01:52:40;52.00;;;29.70;;
76795;SDS011;65745;50.278;18.192;2023-02-15T01:55:17;58.30;;;34.20;;
76795;SDS011;65745;50.278;18.192;2023-02-15T01:57:51;56.60;;;31.80;;
76795;SDS011;65745;50.278;18.192;2023-02-15T02:00:24;62.90;;;29.90;;
76795;SDS011;65745;50.278;18.192;2023-02-15T02:02:56;55.60;;;31.90;;
76795;SDS011;65745;50.278;18.192;2023-02-15T02:05:29;55.10;;;29.20;;
76795;SDS011;65745;50.278;18.192;2023-02-15T02:08:03;57.00;;;30.60;;
76795;SDS011;65745;50.278;18.192;2023-02-15T02:10:38;59.20;;;30.90;;
76795;SDS011;65745;50.278;18.192;2023-02-15T02:13:11;58.50;;;32.80;;
76795;SDS011;65745;50.278;18.192;2023-02-15T02:15:49;56.00;;;32.10;;
76795;SDS011;65745;50.278;18.192;2023-02-15T02:18:31;53.50;;;31.60;;
76795;SDS011;65745;50.278;18.192;2023-02-15T02:21:21;52.00;;;29.90;;
76795;SDS011;65745;50.278;18.192;2023-02-15T02:24:34;53.00;;;28.30;;
76795;SDS011;65745;50.278;18.192;2023-02-15T02:27:31;53.70;;;30.50;;
76795;SDS011;65745;50.278;18.192;2023-02-15T02:30:25;55.10;;;29.40;;
76795;SDS011;65745;50.278;18.192;2023-02-15T02:33:13;51.80;;;30.00;;
76795;SDS011;65745;50.278;18.192;2023-02-15T02:36:17;52.90;;;30.80;;
76795;SDS011;65745;50.278;18.192;2023-02-15T02:39:03;52.70;;;31.30;;
76795;SDS011;65745;50.278;18.192;2023-02-15T02:41:48;54.80;;;30.10;;
76795;SDS011;65745;50.278;18.192;2023-02-15T02:44:28;50.40;;;30.40;;
76795;SDS011;65745;50.278;18.192;2023-02-15T02:47:07;54.30;;;31.80;;
76795;SDS011;65745;50.278;18.192;2023-02-15T02:49:44;54.80;;;30.80;;
76795;SDS011;65745;50.278;18.192;2023-02-15T02:52:37;57.00;;;31.50;;
76795;SDS011;65745;50.278;18.192;2023-02-15T02:55:11;50.80;;;30.10;;
76795;SDS011;65745;50.278;18.192;2023-02-15T02:57:52;49.60;;;28.80;;
76795;SDS011;65745;50.278;18.192;2023-02-15T03:00:29;49.10;;;29.40;;
76795;SDS011;65745;50.278;18.192;2023-02-15T03:03:05;49.60;;;28.70;;
76795;SDS011;65745;50.278;18.192;2023-02-15T03:05:45;50.50;;;30.50;;
76795;SDS011;65745;50.278;18.192;2023-02-15T03:08:21;54.20;;;29.90;;
76795;SDS011;65745;50.278;18.192;2023-02-15T03:10:59;46.80;;;29.30;;
76795;SDS011;65745;50.278;18.192;2023-02-15T03:13:34;46.50;;;28.80;;
76795;SDS011;65745;50.278;18.192;2023-02-15T03:16:09;45.60;;;27.80;;
76795;SDS011;65745;50.278;18.192;2023-02-15T03:18:59;46.90;;;28.30;;
76795;SDS011;65745;50.278;18.192;2023-02-15T03:21:38;46.30;;;27.70;;
76795;SDS011;65745;50.278;18.192;2023-02-15T03:24:19;46.30;;;29.00;;
76795;SDS011;65745;50.278;18.192;2023-02-15T03:26:56;51.60;;;28.20;;
76795;SDS011;65745;50.278;18.192;2023-02-15T03:29:29;44.90;;;26.90;;
76795;SDS011;65745;50.278;18.192;2023-02-15T03:32:06;40.60;;;23.50;;
76795;SDS011;65745;50.278;18.192;2023-02-15T03:37:13;43.60;;;24.70;;
76795;SDS011;65745;50.278;18.192;2023-02-15T03:39:54;41.30;;;26.10;;
76795;SDS011;65745;50.278;18.192;2023-02-15T03:42:51;43.20;;;27.30;;
76795;SDS011;65745;50.278;18.192;2023-02-15T03:45:29;44.30;;;24.20;;
76795;SDS011;65745;50.278;18.192;2023-02-15T03:48:03;41.40;;;24.60;;
76795;SDS011;65745;50.278;18.192;2023-02-15T03:50:38;42.70;;;24.60;;
76795;SDS011;65745;50.278;18.192;2023-02-15T03:53:29;41.00;;;23.70;;
76795;SDS011;65745;50.278;18.192;2023-02-15T03:56:01;50.80;;;26.30;;
76795;SDS011;65745;50.278;18.192;2023-02-15T03:58:33;41.80;;;26.10;;
76795;SDS011;65745;50.278;18.192;2023-02-15T04:01:25;51.70;;;25.80;;
76795;SDS011;65745;50.278;18.192;2023-02-15T04:04:32;50.10;;;27.20;;
76795;SDS011;65745;50.278;18.192;2023-02-15T04:07:07;50.00;;;27.50;;
76795;SDS011;65745;50.278;18.192;2023-02-15T04:09:40;50.30;;;27.00;;
76795;SDS011;65745;50.278;18.192;2023-02-15T04:12:30;43.10;;;26.90;;
76795;SDS011;65745;50.278;18.192;2023-02-15T04:15:02;50.60;;;28.20;;
76795;SDS011;65745;50.278;18.192;2023-02-15T04:17:58;47.30;;;26.20;;
76795;SDS011;65745;50.278;18.192;2023-02-15T04:20:32;49.40;;;28.00;;
76795;SDS011;65745;50.278;18.192;2023-02-15T04:23:22;45.50;;;24.80;;
76795;SDS011;65745;50.278;18.192;2023-02-15T04:26:12;46.90;;;25.90;;
76795;SDS011;65745;50.278;18.192;2023-02-15T04:28:44;47.10;;;25.90;;
76795;SDS011;65745;50.278;18.192;2023-02-15T04:31:17;51.90;;;28.10;;
76795;SDS011;65745;50.278;18.192;2023-02-15T04:33:49;58.10;;;30.20;;
76795;SDS011;65745;50.278;18.192;2023-02-15T04:36:22;51.60;;;28.10;;
76795;SDS011;65745;50.278;18.192;2023-02-15T04:38:54;47.60;;;26.90;;
76795;SDS011;65745;50.278;18.192;2023-02-15T04:41:26;52.90;;;29.40;;
76795;SDS011;65745;50.278;18.192;2023-02-15T04:43:59;48.30;;;27.40;;
76795;SDS011;65745;50.278;18.192;2023-02-15T04:46:31;57.20;;;31.20;;
76795;SDS011;65745;50.278;18.192;2023-02-15T04:49:04;50.40;;;32.40;;
76795;SDS011;65745;50.278;18.192;2023-02-15T04:51:37;61.30;;;35.10;;
76795;SDS011;65745;50.278;18.192;2023-02-15T04:54:09;53.50;;;33.20;;
76795;SDS011;65745;50.278;18.192;2023-02-15T04:56:41;54.90;;;32.00;;
76795;SDS011;65745;50.278;18.192;2023-02-15T04:59:14;62.90;;;35.50;;
76795;SDS011;65745;50.278;18.192;2023-02-15T05:01:46;63.10;;;34.70;;
76795;SDS011;65745;50.278;18.192;2023-02-15T05:04:19;64.50;;;33.80;;
76795;SDS011;65745;50.278;18.192;2023-02-15T05:06:51;53.10;;;27.70;;
76795;SDS011;65745;50.278;18.192;2023-02-15T05:09:24;46.90;;;28.00;;
76795;SDS011;65745;50.278;18.192;2023-02-15T05:11:56;43.10;;;24.90;;
76795;SDS011;65745;50.278;18.192;2023-02-15T05:14:29;46.70;;;27.00;;
76795;SDS011;65745;50.278;18.192;2023-02-15T05:17:01;40.60;;;23.30;;
76795;SDS011;65745;50.278;18.192;2023-02-15T05:19:34;41.00;;;23.10;;
76795;SDS011;65745;50.278;18.192;2023-02-15T05:22:06;40.10;;;24.80;;
76795;SDS011;65745;50.278;18.192;2023-02-15T05:24:39;47.30;;;24.90;;
76795;SDS011;65745;50.278;18.192;2023-02-15T05:27:29;47.70;;;24.80;;
76795;SDS011;65745;50.278;18.192;2023-02-15T05:30:19;51.30;;;25.80;;
76795;SDS011;65745;50.278;18.192;2023-02-15T05:32:52;48.00;;;25.50;;
76795;SDS011;65745;50.278;18.192;2023-02-15T05:35:24;47.80;;;26.80;;
76795;SDS011;65745;50.278;18.192;2023-02-15T05:37:57;53.00;;;28.40;;
76795;SDS011;65745;50.278;18.192;2023-02-15T05:40:29;55.90;;;27.40;;
76795;SDS011;65745;50.278;18.192;2023-02-15T05:43:01;55.80;;;30.90;;
76795;SDS011;65745;50.278;18.192;2023-02-15T05:45:34;50.60;;;30.30;;
76795;SDS011;65745;50.278;18.192;2023-02-15T05:48:06;52.00;;;31.10;;
76795;SDS011;65745;50.278;18.192;2023-02-15T05:50:38;62.60;;;34.00;;
76795;SDS011;65745;50.278;18.192;2023-02-15T05:53:11;67.90;;;35.20;;
76795;SDS011;65745;50.278;18.192;2023-02-15T05:55:43;60.30;;;32.70;;
76795;SDS011;65745;50.278;18.192;2023-02-15T05:58:16;58.20;;;32.20;;
76795;SDS011;65745;50.278;18.192;2023-02-15T06:00:48;68.50;;;37.50;;
76795;SDS011;65745;50.278;18.192;2023-02-15T06:03:20;61.80;;;33.90;;
76795;SDS011;65745;50.278;18.192;2023-02-15T06:05:55;61.70;;;34.00;;
76795;SDS011;65745;50.278;18.192;2023-02-15T06:08:27;65.80;;;36.10;;
76795;SDS011;65745;50.278;18.192;2023-02-15T06:10:59;66.50;;;37.00;;
76795;SDS011;65745;50.278;18.192;2023-02-15T06:13:32;63.30;;;35.40;;
76795;SDS011;65745;50.278;18.192;2023-02-15T06:16:07;69.10;;;36.50;;
76795;SDS011;65745;50.278;18.192;2023-02-15T06:18:39;74.00;;;40.30;;
76795;SDS011;65745;50.278;18.192;2023-02-15T06:21:12;62.20;;;37.70;;
76795;SDS011;65745;50.278;18.192;2023-02-15T06:23:44;57.60;;;32.80;;
76795;SDS011;65745;50.278;18.192;2023-02-15T06:26:16;71.30;;;37.40;;
76795;SDS011;65745;50.278;18.192;2023-02-15T06:28:49;69.50;;;39.40;;
76795;SDS011;65745;50.278;18.192;2023-02-15T06:31:21;70.50;;;43.60;;
76795;SDS011;65745;50.278;18.192;2023-02-15T06:33:53;70.80;;;40.60;;
76795;SDS011;65745;50.278;18.192;2023-02-15T06:36:30;72.00;;;38.50;;
76795;SDS011;65745;50.278;18.192;2023-02-15T06:39:02;76.90;;;41.40;;
76795;SDS011;65745;50.278;18.192;2023-02-15T06:41:35;73.90;;;37.00;;
76795;SDS011;65745;50.278;18.192;2023-02-15T06:44:08;82.90;;;43.80;;
76795;SDS011;65745;50.278;18.192;2023-02-15T06:46:41;83.10;;;41.50;;
76795;SDS011;65745;50.278;18.192;2023-02-15T06:49:13;81.80;;;41.90;;
76795;SDS011;65745;50.278;18.192;2023-02-15T06:51:46;74.20;;;42.10;;
76795;SDS011;65745;50.278;18.192;2023-02-15T06:54:18;69.80;;;41.10;;
76795;SDS011;65745;50.278;18.192;2023-02-15T06:56:51;76.00;;;40.80;;
76795;SDS011;65745;50.278;18.192;2023-02-15T06:59:24;75.20;;;44.20;;
76795;SDS011;65745;50.278;18.192;2023-02-15T07:01:57;67.90;;;43.00;;
76795;SDS011;65745;50.278;18.192;2023-02-15T07:04:30;70.00;;;39.80;;
76795;SDS011;65745;50.278;18.192;2023-02-15T07:07:02;66.00;;;40.20;;
76795;SDS011;65745;50.278;18.192;2023-02-15T07:09:38;77.70;;;45.90;;
76795;SDS011;65745;50.278;18.192;2023-02-15T07:12:10;71.30;;;41.80;;
76795;SDS011;65745;50.278;18.192;2023-02-15T07:15:01;74.40;;;43.20;;
76795;SDS011;65745;50.278;18.192;2023-02-15T07:17:35;73.60;;;42.80;;
76795;SDS011;65745;50.278;18.192;2023-02-15T07:20:09;75.30;;;44.80;;
76795;SDS011;65745;50.278;18.192;2023-02-15T07:22:44;84.10;;;44.70;;
76795;SDS011;65745;50.278;18.192;2023-02-15T07:25:16;90.90;;;51.10;;
76795;SDS011;65745;50.278;18.192;2023-02-15T07:27:50;68.30;;;41.40;;
76795;SDS011;65745;50.278;18.192;2023-02-15T07:30:28;83.70;;;49.80;;
76795;SDS011;65745;50.278;18.192;2023-02-15T07:33:01;78.00;;;44.90;;
76795;SDS011;65745;50.278;18.192;2023-02-15T07:35:54;84.60;;;46.30;;
76795;SDS011;65745;50.278;18.192;2023-02-15T07:38:29;78.40;;;46.10;;
76795;SDS011;65745;50.278;18.192;2023-02-15T07:41:05;81.50;;;53.20;;
76795;SDS011;65745;50.278;18.192;2023-02-15T07:43:39;91.10;;;54.70;;
76795;SDS011;65745;50.278;18.192;2023-02-15T07:46:14;82.40;;;51.10;;
76795;SDS011;65745;50.278;18.192;2023-02-15T07:48:50;83.20;;;50.80;;
76795;SDS011;65745;50.278;18.192;2023-02-15T07:51:24;77.20;;;46.50;;
76795;SDS011;65745;50.278;18.192;2023-02-15T07:53:58;90.30;;;47.90;;
76795;SDS011;65745;50.278;18.192;2023-02-15T07:56:31;81.10;;;47.40;;
76795;SDS011;65745;50.278;18.192;2023-02-15T07:59:05;81.30;;;42.60;;
76795;SDS011;65745;50.278;18.192;2023-02-15T08:01:38;87.20;;;48.30;;
76795;SDS011;65745;50.278;18.192;2023-02-15T08:04:11;78.10;;;46.60;;
76795;SDS011;65745;50.278;18.192;2023-02-15T08:06:43;87.70;;;50.30;;
76795;SDS011;65745;50.278;18.192;2023-02-15T08:09:16;86.80;;;49.10;;
76795;SDS011;65745;50.278;18.192;2023-02-15T08:11:48;84.30;;;49.20;;
76795;SDS011;65745;50.278;18.192;2023-02-15T08:14:22;86.90;;;49.10;;
76795;SDS011;65745;50.278;18.192;2023-02-15T08:16:58;86.70;;;48.50;;
76795;SDS011;65745;50.278;18.192;2023-02-15T08:19:44;80.60;;;50.00;;
76795;SDS011;65745;50.278;18.192;2023-02-15T08:22:17;87.40;;;49.60;;
76795;SDS011;65745;50.278;18.192;2023-02-15T08:24:51;80.20;;;49.40;;
76795;SDS011;65745;50.278;18.192;2023-02-15T08:27:23;87.80;;;53.90;;
76795;SDS011;65745;50.278;18.192;2023-02-15T08:29:56;91.80;;;54.00;;
76795;SDS011;65745;50.278;18.192;2023-02-15T08:32:28;90.90;;;53.70;;
76795;SDS011;65745;50.278;18.192;2023-02-15T08:35:00;82.60;;;49.50;;
76795;SDS011;65745;50.278;18.192;2023-02-15T08:37:32;81.50;;;48.30;;
76795;SDS011;65745;50.278;18.192;2023-02-15T08:40:06;85.60;;;50.30;;
76795;SDS011;65745;50.278;18.192;2023-02-15T08:42:42;93.60;;;54.00;;
76795;SDS011;65745;50.278;18.192;2023-02-15T08:45:15;84.60;;;49.50;;
76795;SDS011;65745;50.278;18.192;2023-02-15T08:47:48;104.40;;;61.10;;
76795;SDS011;65745;50.278;18.192;2023-02-15T08:50:21;104.70;;;60.30;;
76795;SDS011;65745;50.278;18.192;2023-02-15T08:52:53;94.60;;;56.70;;
76795;SDS011;65745;50.278;18.192;2023-02-15T08:55:25;92.90;;;53.50;;
76795;SDS011;65745;50.278;18.192;2023-02-15T08:57:58;94.10;;;55.90;;
76795;SDS011;65745;50.278;18.192;2023-02-15T09:00:30;113.50;;;60.10;;
76795;SDS011;65745;50.278;18.192;2023-02-15T09:03:02;118.80;;;65.40;;
76795;SDS011;65745;50.278;18.192;2023-02-15T09:05:35;97.90;;;54.30;;
76795;SDS011;65745;50.278;18.192;2023-02-15T09:08:09;116.10;;;62.80;;
76795;SDS011;65745;50.278;18.192;2023-02-15T09:10:47;112.30;;;62.10;;
76795;SDS011;65745;50.278;18.192;2023-02-15T09:13:20;104.50;;;58.90;;
76795;SDS011;65745;50.278;18.192;2023-02-15T09:16:01;94.90;;;53.50;;
76795;SDS011;65745;50.278;18.192;2023-02-15T09:18:36;99.70;;;57.80;;
76795;SDS011;65745;50.278;18.192;2023-02-15T09:21:11;103.10;;;58.00;;
76795;SDS011;65745;50.278;18.192;2023-02-15T09:23:47;90.10;;;53.20;;
76795;SDS011;65745;50.278;18.192;2023-02-15T09:26:22;91.00;;;53.40;;
76795;SDS011;65745;50.278;18.192;2023-02-15T09:28:57;101.40;;;56.90;;
76795;SDS011;65745;50.278;18.192;2023-02-15T09:31:33;97.80;;;58.10;;
76795;SDS011;65745;50.278;18.192;2023-02-15T09:34:11;95.90;;;56.20;;
76795;SDS011;65745;50.278;18.192;2023-02-15T09:36:46;81.80;;;47.30;;
76795;SDS011;65745;50.278;18.192;2023-02-15T09:39:20;86.00;;;50.20;;
76795;SDS011;65745;50.278;18.192;2023-02-15T09:48:30;52.30;;;31.90;;
76795;SDS011;65745;50.278;18.192;2023-02-15T09:51:28;55.20;;;32.50;;
76795;SDS011;65745;50.278;18.192;2023-02-15T09:54:19;55.10;;;31.40;;
76795;SDS011;65745;50.278;18.192;2023-02-15T09:57:05;54.40;;;32.20;;
76795;SDS011;65745;50.278;18.192;2023-02-15T09:59:45;60.40;;;35.60;;
76795;SDS011;65745;50.278;18.192;2023-02-15T10:02:31;54.60;;;33.90;;
76795;SDS011;65745;50.278;18.192;2023-02-15T10:05:34;52.30;;;32.80;;
76795;SDS011;65745;50.278;18.192;2023-02-15T10:11:20;42.70;;;27.40;;
76795;SDS011;65745;50.278;18.192;2023-02-15T10:14:15;57.20;;;31.60;;
76795;SDS011;65745;50.278;18.192;2023-02-15T10:17:12;82.60;;;42.90;;
76795;SDS011;65745;50.278;18.192;2023-02-15T10:19:55;44.70;;;26.60;;
76795;SDS011;65745;50.278;18.192;2023-02-15T10:22:42;42.40;;;25.70;;
76795;SDS011;65745;50.278;18.192;2023-02-15T10:25:34;50.80;;;30.00;;
76795;SDS011;65745;50.278;18.192;2023-02-15T10:28:15;58.30;;;33.30;;
76795;SDS011;65745;50.278;18.192;2023-02-15T10:30:49;51.00;;;31.40;;
76795;SDS011;65745;50.278;18.192;2023-02-15T10:33:34;47.80;;;30.80;;
76795;SDS011;65745;50.278;18.192;2023-02-15T10:36:15;45.10;;;28.70;;
76795;SDS011;65745;50.278;18.192;2023-02-15T10:39:02;48.70;;;28.30;;
76795;SDS011;65745;50.278;18.192;2023-02-15T10:41:44;45.20;;;25.90;;
76795;SDS011;65745;50.278;18.192;2023-02-15T10:44:24;46.80;;;26.80;;
76795;SDS011;65745;50.278;18.192;2023-02-15T10:47:20;46.20;;;26.60;;
76795;SDS011;65745;50.278;18.192;2023-02-15T10:50:16;35.50;;;21.00;;
76795;SDS011;65745;50.278;18.192;2023-02-15T10:53:06;41.70;;;25.10;;
76795;SDS011;65745;50.278;18.192;2023-02-15T10:55:49;40.40;;;26.40;;
76795;SDS011;65745;50.278;18.192;2023-02-15T10:58:31;31.50;;;20.50;;
76795;SDS011;65745;50.278;18.192;2023-02-15T11:01:18;31.10;;;21.10;;
76795;SDS011;65745;50.278;18.192;2023-02-15T11:04:20;37.60;;;23.00;;
76795;SDS011;65745;50.278;18.192;2023-02-15T11:07:12;27.50;;;18.60;;
76795;SDS011;65745;50.278;18.192;2023-02-15T11:09:50;42.70;;;26.30;;
76795;SDS011;65745;50.278;18.192;2023-02-15T11:12:27;32.90;;;20.30;;
76795;SDS011;65745;50.278;18.192;2023-02-15T11:15:02;32.60;;;20.10;;
76795;SDS011;65745;50.278;18.192;2023-02-15T11:17:46;30.70;;;21.70;;
76795;SDS011;65745;50.278;18.192;2023-02-15T11:20:27;29.40;;;20.30;;
76795;SDS011;65745;50.278;18.192;2023-02-15T11:23:06;24.80;;;17.80;;
76795;SDS011;65745;50.278;18.192;2023-02-15T11:25:46;23.50;;;15.80;;
76795;SDS011;65745;50.278;18.192;2023-02-15T11:28:25;24.60;;;16.60;;
76795;SDS011;65745;50.278;18.192;2023-02-15T11:31:15;24.20;;;16.40;;
76795;SDS011;65745;50.278;18.192;2023-02-15T11:33:51;26.60;;;16.80;;
76795;SDS011;65745;50.278;18.192;2023-02-15T11:36:31;23.20;;;15.40;;
76795;SDS011;65745;50.278;18.192;2023-02-15T11:39:10;21.40;;;15.10;;
76795;SDS011;65745;50.278;18.192;2023-02-15T11:41:46;22.30;;;16.00;;
76795;SDS011;65745;50.278;18.192;2023-02-15T11:44:24;20.80;;;14.90;;
76795;SDS011;65745;50.278;18.192;2023-02-15T11:47:01;18.70;;;14.00;;
76795;SDS011;65745;50.278;18.192;2023-02-15T11:49:45;22.40;;;14.90;;
76795;SDS011;65745;50.278;18.192;2023-02-15T11:52:26;21.70;;;14.60;;
76795;SDS011;65745;50.278;18.192;2023-02-15T11:54:59;22.30;;;13.50;;
76795;SDS011;65745;50.278;18.192;2023-02-15T11:57:43;20.00;;;13.50;;
76795;SDS011;65745;50.278;18.192;2023-02-15T12:00:26;20.80;;;13.70;;
76795;SDS011;65745;50.278;18.192;2023-02-15T12:03:12;20.90;;;13.20;;
76795;SDS011;65745;50.278;18.192;2023-02-15T12:05:53;22.30;;;14.80;;
76795;SDS011;65745;50.278;18.192;2023-02-15T12:08:34;19.20;;;13.20;;
76795;SDS011;65745;50.278;18.192;2023-02-15T12:11:10;19.70;;;13.90;;
76795;SDS011;65745;50.278;18.192;2023-02-15T12:13:55;21.10;;;13.60;;
76795;SDS011;65745;50.278;18.192;2023-02-15T12:16:29;17.90;;;13.90;;
76795;SDS011;65745;50.278;18.192;2023-02-15T12:19:27;19.80;;;13.50;;
76795;SDS011;65745;50.278;18.192;2023-02-15T12:22:11;18.50;;;13.90;;
76795;SDS011;65745;50.278;18.192;2023-02-15T12:25:04;17.30;;;12.50;;
76795;SDS011;65745;50.278;18.192;2023-02-15T12:27:52;16.10;;;11.30;;
76795;SDS011;65745;50.278;18.192;2023-02-15T12:30:27;19.90;;;14.40;;
76795;SDS011;65745;50.278;18.192;2023-02-15T12:33:05;17.90;;;12.80;;
76795;SDS011;65745;50.278;18.192;2023-02-15T12:35:46;16.40;;;11.90;;
76795;SDS011;65745;50.278;18.192;2023-02-15T12:38:25;18.80;;;12.60;;
76795;SDS011;65745;50.278;18.192;2023-02-15T12:40:59;16.40;;;12.00;;
76795;SDS011;65745;50.278;18.192;2023-02-15T12:43:35;18.10;;;12.80;;
76795;SDS011;65745;50.278;18.192;2023-02-15T12:46:20;18.40;;;13.00;;
76795;SDS011;65745;50.278;18.192;2023-02-15T12:49:10;18.30;;;12.20;;
76795;SDS011;65745;50.278;18.192;2023-02-15T12:51:49;17.40;;;13.10;;
76795;SDS011;65745;50.278;18.192;2023-02-15T12:58:15;16.40;;;11.80;;
76795;SDS011;65745;50.278;18.192;2023-02-15T13:01:03;16.50;;;12.50;;
76795;SDS011;65745;50.278;18.192;2023-02-15T13:03:53;17.70;;;11.90;;
76795;SDS011;65745;50.278;18.192;2023-02-15T13:06:30;15.90;;;11.90;;
76795;SDS011;65745;50.278;18.192;2023-02-15T13:09:11;17.80;;;12.40;;
76795;SDS011;65745;50.278;18.192;2023-02-15T13:11:48;15.30;;;11.70;;
76795;SDS011;65745;50.278;18.192;2023-02-15T13:14:30;16.50;;;12.70;;
76795;SDS011;65745;50.278;18.192;2023-02-15T13:17:04;16.60;;;11.20;;
76795;SDS011;65745;50.278;18.192;2023-02-15T13:19:41;16.20;;;12.20;;
76795;SDS011;65745;50.278;18.192;2023-02-15T13:22:16;14.40;;;10.50;;
76795;SDS011;65745;50.278;18.192;2023-02-15T13:24:53;15.50;;;11.40;;
76795;SDS011;65745;50.278;18.192;2023-02-15T13:27:30;14.40;;;11.30;;
76795;SDS011;65745;50.278;18.192;2023-02-15T13:30:13;14.20;;;10.70;;
76795;SDS011;65745;50.278;18.192;2023-02-15T13:32:55;22.50;;;15.40;;
76795;SDS011;65745;50.278;18.192;2023-02-15T13:35:36;18.70;;;12.90;;
76795;SDS011;65745;50.278;18.192;2023-02-15T13:38:20;15.10;;;10.30;;
76795;SDS011;65745;50.278;18.192;2023-02-15T13:41:11;13.80;;;11.10;;
76795;SDS011;65745;50.278;18.192;2023-02-15T13:43:50;14.90;;;11.60;;
76795;SDS011;65745;50.278;18.192;2023-02-15T13:46:34;15.30;;;11.90;;
76795;SDS011;65745;50.278;18.192;2023-02-15T13:49:35;14.10;;;12.50;;
76795;SDS011;65745;50.278;18.192;2023-02-15T13:52:27;13.50;;;12.10;;
76795;SDS011;65745;50.278;18.192;2023-02-15T13:55:17;14.30;;;12.80;;
76795;SDS011;65745;50.278;18.192;2023-02-15T13:58:04;14.20;;;12.80;;
76795;SDS011;65745;50.278;18.192;2023-02-15T14:00:50;14.60;;;12.80;;
76795;SDS011;65745;50.278;18.192;2023-02-15T14:09:43;14.40;;;13.00;;
76795;SDS011;65745;50.278;18.192;2023-02-15T14:13:04;14.70;;;13.30;;
76795;SDS011;65745;50.278;18.192;2023-02-15T14:16:03;14.70;;;13.30;;
76795;SDS011;65745;50.278;18.192;2023-02-15T14:18:41;14.70;;;13.40;;
76795;SDS011;65745;50.278;18.192;2023-02-15T14:21:18;16.90;;;15.10;;
76795;SDS011;65745;50.278;18.192;2023-02-15T14:24:00;16.40;;;14.80;;
76795;SDS011;65745;50.278;18.192;2023-02-15T14:26:46;17.40;;;15.80;;
76795;SDS011;65745;50.278;18.192;2023-02-15T14:29:27;17.00;;;15.40;;
76795;SDS011;65745;50.278;18.192;2023-02-15T14:32:08;17.80;;;16.10;;
76795;SDS011;65745;50.278;18.192;2023-02-15T14:34:44;17.80;;;16.10;;
76795;SDS011;65745;50.278;18.192;2023-02-15T14:37:21;17.80;;;16.10;;
76795;SDS011;65745;50.278;18.192;2023-02-15T14:40:02;18.00;;;16.30;;
76795;SDS011;65745;50.278;18.192;2023-02-15T14:43:04;17.70;;;16.00;;
76795;SDS011;65745;50.278;18.192;2023-02-15T14:45:42;18.00;;;16.30;;
76795;SDS011;65745;50.278;18.192;2023-02-15T14:48:21;18.60;;;16.80;;
76795;SDS011;65745;50.278;18.192;2023-02-15T14:51:00;19.30;;;17.40;;
76795;SDS011;65745;50.278;18.192;2023-02-15T14:53:37;20.10;;;18.10;;
76795;SDS011;65745;50.278;18.192;2023-02-15T14:56:18;21.70;;;19.60;;
76795;SDS011;65745;50.278;18.192;2023-02-15T14:59:01;19.40;;;17.40;;
76795;SDS011;65745;50.278;18.192;2023-02-15T15:01:55;20.60;;;18.50;;
76795;SDS011;65745;50.278;18.192;2023-02-15T15:04:42;21.70;;;19.40;;
76795;SDS011;65745;50.278;18.192;2023-02-15T15:07:26;20.80;;;18.30;;
76795;SDS011;65745;50.278;18.192;2023-02-15T15:10:18;22.90;;;18.80;;
76795;SDS011;65745;50.278;18.192;2023-02-15T15:16:30;20.20;;;18.00;;
76795;SDS011;65745;50.278;18.192;2023-02-15T15:22:38;24.00;;;18.90;;
76795;SDS011;65745;50.278;18.192;2023-02-15T15:25:32;24.30;;;19.50;;
76795;SDS011;65745;50.278;18.192;2023-02-15T15:31:23;23.10;;;18.30;;
76795;SDS011;65745;50.278;18.192;2023-02-15T15:34:12;22.60;;;17.70;;
76795;SDS011;65745;50.278;18.192;2023-02-15T15:43:38;25.40;;;19.20;;
76795;SDS011;65745;50.278;18.192;2023-02-15T15:46:44;26.10;;;20.10;;
76795;SDS011;65745;50.278;18.192;2023-02-15T15:49:32;24.40;;;18.50;;
76795;SDS011;65745;50.278;18.192;2023-02-15T15:52:11;29.00;;;20.50;;
76795;SDS011;65745;50.278;18.192;2023-02-15T15:54:46;27.60;;;18.40;;
76795;SDS011;65745;50.278;18.192;2023-02-15T15:57:25;26.20;;;18.70;;